Time;durP1;ratioP1;P1;durP2;ratioP2;P2;SDS_P1;SDS_P2;PMS_P1;PMS_P2;Temp;Humidity;BMP_temperature;BMP_pressure;BME280_temperature;BME280_humidity;BME280_pressure;Samples;Min_cycle;Max_cycle;Signal;HPM_P1;HPM_P2
2024/02/16 00:01:08;;;;;;;4.75;3.47;;;12.30;66.60;;;14.04;51.10;97438.16;4841973;29;20062;-63
2024/02/16 00:03:35;;;;;;;5.75;3.63;;;12.30;66.90;;;14.04;50.95;97434.66;4842197;29;20050;-63
2024/02/16 00:06:03;;;;;;;5.70;3.40;;;12.30;66.80;;;14.04;50.77;97440.81;4826047;29;20056;-63
2024/02/16 00:08:31;;;;;;;7.60;3.95;;;12.30;66.70;;;14.04;50.50;97451.53;4842840;29;20050;-63
2024/02/16 00:10:59;;;;;;;5.18;3.47;;;12.30;66.80;;;14.06;50.15;97446.00;4842440;29;20510;-63
2024/02/16 00:13:26;;;;;;;8.45;5.22;;;12.40;65.10;;;14.05;50.21;97450.50;4841033;29;20506;-62
2024/02/16 00:15:54;;;;;;;10.63;7.80;;;12.40;65.60;;;14.05;50.40;97444.31;4825839;29;20057;-63
2024/02/16 00:18:21;;;;;;;9.77;5.70;;;12.40;65.90;;;14.04;50.68;97437.31;4842670;29;20426;-63
2024/02/16 00:20:49;;;;;;;7.03;4.75;;;12.30;66.00;;;14.01;50.47;97435.84;4842462;29;20394;-63
2024/02/16 00:23:19;;;;;;;7.43;4.88;;;12.30;66.00;;;13.99;50.51;97437.88;4841702;29;20052;-62
2024/02/16 00:25:47;;;;;;;8.40;4.32;;;12.30;65.70;;;13.97;50.52;97431.88;4842135;29;20057;-63
2024/02/16 00:28:14;;;;;;;4.82;3.22;;;12.20;65.90;;;13.97;50.62;97430.03;4841837;29;20046;-63
2024/02/16 00:30:42;;;;;;;5.25;3.88;;;12.30;65.90;;;14.00;50.54;97428.84;4842365;29;20501;-63
2024/02/16 00:33:10;;;;;;;4.45;3.38;;;12.30;65.90;;;13.99;50.53;97419.97;4842318;29;22390;-63
2024/02/16 00:35:37;;;;;;;4.28;2.90;;;12.30;65.40;;;14.01;50.34;97419.78;4842227;29;20081;-62
2024/02/16 00:38:05;;;;;;;9.02;3.40;;;12.30;65.00;;;14.02;50.31;97417.94;4842130;29;20050;-62
2024/02/16 00:40:32;;;;;;;5.00;3.17;;;12.40;64.90;;;14.04;50.19;97418.59;4842242;29;20517;-63
2024/02/16 00:43:03;;;;;;;6.93;3.10;;;12.40;65.00;;;14.03;50.07;97411.56;4842225;29;20054;-63
2024/02/16 00:45:31;;;;;;;6.07;3.50;;;12.40;64.80;;;14.01;50.14;97413.59;4842001;29;20046;-63
2024/02/16 00:47:59;;;;;;;3.50;2.78;;;12.40;64.60;;;14.00;50.21;97420.81;4842062;29;20052;-62
2024/02/16 00:50:26;;;;;;;4.22;3.13;;;12.40;64.90;;;13.99;50.14;97419.13;4842104;29;20494;-63
2024/02/16 00:52:54;;;;;;;4.18;3.08;;;12.30;64.80;;;14.01;50.10;97417.09;4841691;29;20518;-63
2024/02/16 00:55:22;;;;;;;5.15;2.80;;;12.40;64.60;;;13.99;50.15;97414.59;4841907;29;20038;-62
2024/02/16 00:57:49;;;;;;;5.65;3.40;;;12.30;64.90;;;13.98;49.91;97421.00;4841739;29;20054;-62
2024/02/16 01:00:19;;;;;;;4.00;3.17;;;12.20;64.80;;;13.95;49.89;97421.34;4810349;29;20054;-63
2024/02/16 01:02:46;;;;;;;5.28;3.78;;;12.20;64.80;;;13.91;50.04;97424.59;4841987;29;20050;-63
2024/02/16 01:05:17;;;;;;;5.63;3.22;;;12.10;65.10;;;13.86;49.99;97422.50;4841829;29;20411;-62
2024/02/16 01:07:45;;;;;;;6.13;3.42;;;12.10;65.30;;;13.82;49.76;97421.19;4841358;29;20050;-63
2024/02/16 01:10:13;;;;;;;3.42;2.97;;;12.10;65.30;;;13.83;50.11;97414.84;4841758;29;20426;-62
2024/02/16 01:12:40;;;;;;;4.75;3.50;;;12.10;65.60;;;13.84;50.02;97421.88;4855693;29;20073;-62
2024/02/16 01:15:09;;;;;;;4.32;3.30;;;12.10;65.20;;;13.81;50.05;97432.09;4841769;29;20054;-63
2024/02/16 01:17:36;;;;;;;6.03;3.42;;;12.10;65.40;;;13.68;50.54;97422.06;4824253;29;20426;-62
2024/02/16 01:20:10;;;;;;;4.85;3.08;;;11.90;66.30;;;13.70;50.52;97430.72;4840096;29;20070;-62
2024/02/16 01:22:40;;;;;;;5.50;3.28;;;11.90;66.60;;;13.72;50.21;97431.38;4823047;29;20050;-63
2024/02/16 01:25:08;;;;;;;4.65;2.88;;;12.00;65.10;;;13.74;50.42;97427.47;4825119;29;20050;-62
2024/02/16 01:27:36;;;;;;;5.07;2.70;;;12.00;65.50;;;13.77;49.98;97426.28;4840930;29;20050;-62
2024/02/16 01:30:04;;;;;;;4.50;2.60;;;12.10;65.20;;;13.79;50.03;97435.78;4841306;29;20062;-63
2024/02/16 01:32:32;;;;;;;2.83;1.90;;;12.20;64.20;;;13.82;49.35;97428.41;4824783;29;20521;-62
2024/02/16 01:35:00;;;;;;;4.00;2.80;;;12.20;63.10;;;13.84;49.69;97429.88;4840906;29;20430;-63
2024/02/16 01:37:27;;;;;;;5.18;3.42;;;12.20;63.80;;;13.86;49.96;97433.22;4824657;29;20050;-63
2024/02/16 01:39:55;;;;;;;3.95;2.92;;;12.20;64.80;;;13.87;50.00;97428.69;4840633;29;20073;-62
2024/02/16 01:42:22;;;;;;;4.57;3.70;;;12.20;65.10;;;13.86;50.29;97425.19;4840819;29;20050;-62
2024/02/16 01:44:51;;;;;;;4.28;3.08;;;12.20;65.00;;;13.87;49.78;97432.19;4841121;29;20080;-62
2024/02/16 01:47:19;;;;;;;4.30;2.10;;;12.20;64.00;;;13.88;49.56;97423.16;4824361;29;20395;-62
2024/02/16 01:49:47;;;;;;;4.25;2.67;;;12.20;63.10;;;13.93;49.55;97428.75;4841325;29;20418;-63
2024/02/16 01:52:14;;;;;;;4.18;2.45;;;12.30;62.90;;;13.97;49.26;97415.81;4840819;29;20052;-62
2024/02/16 01:54:42;;;;;;;2.65;1.95;;;12.40;63.30;;;14.00;49.20;97410.09;4840913;29;20399;-63
2024/02/16 01:57:10;;;;;;;3.60;2.13;;;12.40;62.80;;;14.02;49.28;97405.38;4840316;29;20061;-63
2024/02/16 01:59:40;;;;;;;4.10;2.30;;;12.50;62.60;;;14.06;49.35;97408.53;4817385;29;20045;-62
2024/02/16 02:02:07;;;;;;;3.58;2.30;;;12.50;63.60;;;14.09;49.52;97411.63;4840795;29;20057;-62
2024/02/16 02:04:37;;;;;;;3.95;2.17;;;12.50;64.00;;;14.10;49.74;97415.16;4840875;29;20106;-62
2024/02/16 02:07:13;;;;;;;3.53;2.38;;;12.50;64.40;;;14.11;49.83;97414.97;4824009;29;20430;-62
2024/02/16 02:09:41;;;;;;;3.25;2.35;;;12.50;65.00;;;14.10;49.82;97410.63;4824645;29;20058;-63
2024/02/16 02:12:10;;;;;;;3.33;2.70;;;12.50;64.60;;;14.09;50.19;97405.44;4824427;29;20057;-63
2024/02/16 02:14:37;;;;;;;3.65;2.30;;;12.50;65.50;;;14.09;50.73;97400.91;4840745;29;20041;-62
2024/02/16 02:17:05;;;;;;;4.72;2.70;;;12.50;66.70;;;14.10;50.43;97399.09;4840038;29;20510;-63
2024/02/16 02:19:34;;;;;;;4.40;2.50;;;12.50;66.00;;;14.08;50.94;97393.09;4838935;29;20042;-62
2024/02/16 02:22:02;;;;;;;4.88;2.80;;;12.40;67.00;;;14.06;51.01;97390.59;4840577;29;20054;-62
2024/02/16 02:24:30;;;;;;;3.58;2.60;;;12.40;67.50;;;14.05;50.85;97383.59;4840448;29;20426;-63
2024/02/16 02:26:57;;;;;;;3.38;2.50;;;12.40;66.70;;;14.03;50.78;97390.97;4839481;29;20050;-62
2024/02/16 02:29:25;;;;;;;4.70;2.30;;;12.30;66.70;;;14.01;51.12;97394.88;4840251;29;20057;-62
2024/02/16 02:31:54;;;;;;;2.65;2.20;;;12.30;68.10;;;13.99;50.94;97398.53;4838458;29;20498;-62
2024/02/16 02:34:22;;;;;;;5.32;2.85;;;12.30;68.00;;;13.96;51.22;97390.09;4838907;29;20045;-62
2024/02/16 02:36:50;;;;;;;3.70;3.03;;;12.30;68.00;;;13.94;51.34;97392.94;4819504;29;20053;-63
2024/02/16 02:39:17;;;;;;;3.05;2.60;;;12.30;68.50;;;13.93;51.57;97393.94;4838814;29;20094;-62
2024/02/16 02:41:45;;;;;;;3.83;2.97;;;12.20;69.10;;;13.90;51.64;97388.16;4840273;29;20058;-62
2024/02/16 02:44:13;;;;;;;3.28;2.50;;;12.10;69.30;;;13.88;52.02;97390.19;4823997;29;20054;-62
2024/02/16 02:46:40;;;;;;;3.90;3.13;;;12.10;69.90;;;13.85;52.04;97383.38;4839848;29;20054;-62
2024/02/16 02:49:08;;;;;;;4.60;2.50;;;12.10;70.20;;;13.85;52.08;97383.38;4840238;29;20041;-62
2024/02/16 02:51:36;;;;;;;4.30;3.13;;;12.10;69.80;;;13.82;52.00;97373.03;4839767;29;20047;-62
2024/02/16 02:54:04;;;;;;;4.25;3.15;;;12.10;70.40;;;13.83;52.45;97372.03;4840035;29;20046;-62
2024/02/16 02:56:32;;;;;;;5.28;2.63;;;12.10;71.40;;;13.80;52.17;97369.72;4823656;29;20042;-62
2024/02/16 02:58:59;;;;;;;4.30;2.97;;;12.10;69.80;;;13.78;52.12;97358.38;4839946;29;20077;-62
2024/02/16 03:01:27;;;;;;;3.55;2.30;;;12.10;69.80;;;13.78;51.99;97363.72;4839906;29;20056;-62
2024/02/16 03:03:55;;;;;;;5.05;2.78;;;12.10;69.10;;;13.77;52.22;97367.44;4838992;29;20101;-62
2024/02/16 03:06:23;;;;;;;3.42;2.65;;;12.10;69.80;;;13.77;52.41;97370.13;4839571;29;20050;-62
2024/02/16 03:08:51;;;;;;;5.20;2.65;;;12.00;71.00;;;13.75;52.55;97367.63;4840304;29;20510;-62
2024/02/16 03:11:19;;;;;;;6.05;2.85;;;12.00;70.70;;;13.72;52.59;97367.97;4824021;29;20502;-62
2024/02/16 03:13:47;;;;;;;3.57;2.80;;;12.00;70.90;;;13.71;52.68;97369.00;4839822;29;20494;-62
2024/02/16 03:16:15;;;;;;;6.03;2.80;;;11.90;70.90;;;13.70;52.88;97366.53;4839601;29;20053;-62
2024/02/16 03:18:43;;;;;;;3.13;2.42;;;11.90;70.90;;;13.69;52.53;97373.72;4840422;29;20421;-63
2024/02/16 03:21:16;;;;;;;3.17;2.40;;;11.90;71.30;;;13.70;52.48;97377.22;4823691;29;20050;-62
2024/02/16 03:23:44;;;;;;;3.60;2.28;;;11.90;69.70;;;13.66;52.27;97376.75;4839767;29;20478;-63
2024/02/16 03:26:17;;;;;;;3.28;2.28;;;11.90;69.50;;;13.65;51.96;97372.44;4839565;29;20061;-62
2024/02/16 03:28:48;;;;;;;3.03;2.67;;;11.90;68.60;;;13.66;51.51;97370.59;4823120;29;20422;-62
2024/02/16 03:31:22;;;;;;;4.35;2.30;;;11.90;67.30;;;13.68;51.09;97379.25;4839490;29;20053;-63
2024/02/16 03:33:51;;;;;;;2.22;1.70;;;12.00;66.30;;;13.68;50.88;97381.94;4823767;29;20049;-62
2024/02/16 03:36:20;;;;;;;3.72;2.58;;;12.00;65.50;;;13.67;50.86;97372.25;4823256;29;20081;-62
2024/02/16 03:38:51;;;;;;;3.55;2.10;;;11.90;66.20;;;13.68;50.94;97371.22;4823677;29;20054;-62
2024/02/16 03:41:22;;;;;;;2.22;1.80;;;11.90;66.30;;;13.64;51.11;97373.44;4816512;29;20400;-62
2024/02/16 03:43:51;;;;;;;2.47;2.03;;;11.80;67.10;;;13.60;51.08;97374.84;4823782;29;20423;-62
2024/02/16 03:46:19;;;;;;;2.80;1.98;;;11.80;68.20;;;13.59;50.99;97373.19;4839207;29;20053;-62
2024/02/16 03:48:46;;;;;;;2.25;1.63;;;11.80;67.00;;;13.58;50.37;97379.53;4822538;29;20506;-63
2024/02/16 03:51:14;;;;;;;2.00;1.45;;;11.80;66.20;;;13.58;50.32;97366.19;4839600;29;20426;-62
2024/02/16 03:53:44;;;;;;;1.92;1.63;;;11.90;65.30;;;13.62;50.02;97369.31;4839578;29;20050;-62
2024/02/16 03:56:17;;;;;;;3.08;1.73;;;11.90;64.70;;;13.64;49.78;97376.13;4839198;29;20053;-62
2024/02/16 03:58:45;;;;;;;2.40;1.83;;;12.00;63.80;;;13.66;49.79;97376.75;4839578;29;20506;-62
2024/02/16 04:01:13;;;;;;;1.90;1.40;;;12.00;63.30;;;13.70;49.75;97375.38;4839242;29;20085;-62
2024/02/16 04:03:41;;;;;;;1.92;1.70;;;12.10;63.80;;;13.74;49.49;97373.16;4840635;29;20050;-62
2024/02/16 04:06:09;;;;;;;2.88;1.60;;;12.10;63.00;;;13.77;49.23;97373.59;4842791;29;20077;-62
2024/02/16 04:08:37;;;;;;;2.75;1.80;;;12.10;62.50;;;13.82;49.02;97361.50;4842777;29;20050;-62
2024/02/16 04:11:04;;;;;;;2.35;1.50;;;12.20;62.30;;;13.88;48.95;97369.63;4842977;29;20060;-63
2024/02/16 04:13:32;;;;;;;2.88;1.83;;;12.30;61.50;;;13.91;49.09;97374.59;4842527;29;20049;-63
2024/02/16 04:16:00;;;;;;;2.00;1.42;;;12.30;62.50;;;13.92;48.97;97378.06;4842552;29;20046;-62
2024/02/16 04:18:27;;;;;;;2.90;1.77;;;12.30;62.50;;;13.91;48.89;97371.09;4842544;29;20058;-63
2024/02/16 04:20:55;;;;;;;2.63;1.73;;;12.30;62.30;;;13.91;49.26;97376.44;4826342;29;20061;-62
2024/02/16 04:23:23;;;;;;;3.30;2.20;;;12.30;62.70;;;13.90;49.18;97380.97;4838861;29;20451;-62
2024/02/16 04:25:50;;;;;;;3.08;2.22;;;12.30;63.20;;;13.91;49.47;97381.78;4842450;29;20065;-63
2024/02/16 04:28:18;;;;;;;4.78;2.30;;;12.30;63.40;;;13.92;49.37;97386.09;4842342;29;20038;-62
2024/02/16 04:30:46;;;;;;;3.33;1.95;;;12.30;63.50;;;13.91;49.55;97395.16;4842587;29;20050;-63
2024/02/16 04:33:13;;;;;;;2.50;2.15;;;12.20;63.80;;;13.89;49.25;97400.72;4842280;29;20076;-63
2024/02/16 04:35:41;;;;;;;3.28;1.95;;;12.20;63.60;;;13.86;49.23;97384.19;4841955;29;20066;-62
2024/02/16 04:38:09;;;;;;;4.93;2.20;;;12.10;63.30;;;13.83;49.34;97389.94;4842327;29;20050;-62
2024/02/16 04:40:37;;;;;;;3.08;2.03;;;12.10;63.40;;;13.81;49.20;97386.63;4818852;29;20426;-62
2024/02/16 04:43:05;;;;;;;3.75;2.15;;;12.10;63.80;;;13.78;49.12;97391.34;4841156;29;20058;-63
2024/02/16 04:45:33;;;;;;;6.18;2.00;;;12.10;63.60;;;13.79;49.32;97392.16;4841985;29;20050;-63
2024/02/16 04:48:05;;;;;;;3.28;2.20;;;12.10;63.80;;;13.77;48.88;97396.88;4825867;29;20458;-63
2024/02/16 04:50:33;;;;;;;2.65;1.80;;;12.00;63.10;;;13.74;49.21;97394.56;4825910;29;20038;-62
2024/02/16 04:53:02;;;;;;;3.83;1.85;;;12.00;63.40;;;13.72;49.26;97393.91;4825576;29;20565;-62
2024/02/16 04:55:31;;;;;;;2.53;1.98;;;12.00;63.40;;;13.71;49.05;97390.41;4841738;29;20502;-63
2024/02/16 04:57:58;;;;;;;3.33;2.20;;;12.00;62.90;;;13.70;49.21;97391.41;4841789;29;20046;-62
2024/02/16 05:00:26;;;;;;;3.53;1.92;;;12.00;63.40;;;13.65;49.17;97391.16;4840295;29;20054;-63
2024/02/16 05:02:54;;;;;;;3.28;2.10;;;11.90;63.30;;;13.62;49.10;97388.84;4842081;29;20227;-62
2024/02/16 05:05:22;;;;;;;2.67;1.88;;;11.90;63.30;;;13.56;49.07;97394.97;4841637;29;20102;-62
2024/02/16 05:07:50;;;;;;;4.00;2.42;;;11.90;63.10;;;13.49;49.00;97402.06;4841367;29;20060;-62
2024/02/16 05:10:19;;;;;;;6.68;2.08;;;11.80;63.30;;;13.41;49.07;97413.66;4841730;29;20050;-62
2024/02/16 05:12:47;;;;;;;6.65;3.10;;;11.70;64.00;;;13.42;49.23;97415.34;4825501;29;20061;-62
2024/02/16 05:15:15;;;;;;;4.05;2.70;;;11.70;64.00;;;13.38;49.43;97406.88;4841214;29;20445;-62
2024/02/16 05:17:47;;;;;;;6.47;2.78;;;11.60;64.30;;;13.34;49.62;97408.25;4841234;29;20407;-62
2024/02/16 05:20:15;;;;;;;5.23;2.73;;;11.60;64.90;;;13.32;49.59;97412.13;4825882;29;20054;-62
2024/02/16 05:22:47;;;;;;;3.92;2.92;;;11.60;65.10;;;13.27;49.92;97409.13;4841537;29;20056;-62
2024/02/16 05:25:15;;;;;;;6.03;2.85;;;11.50;65.70;;;13.24;50.21;97417.50;4824802;29;20050;-63
2024/02/16 05:27:43;;;;;;;3.83;3.27;;;11.40;66.30;;;13.18;50.20;97430.63;4823883;29;20057;-62
2024/02/16 05:30:12;;;;;;;4.57;3.10;;;11.30;66.80;;;13.12;50.36;97428.66;4841452;29;20049;-62
2024/02/16 05:32:42;;;;;;;4.17;2.50;;;11.30;66.70;;;13.09;50.16;97429.03;4817898;29;20503;-62
2024/02/16 05:35:14;;;;;;;4.47;2.77;;;11.30;66.60;;;13.05;50.38;97427.75;4825140;29;20050;-62
2024/02/16 05:37:45;;;;;;;6.43;3.15;;;11.20;67.10;;;12.99;50.50;97431.16;4826352;29;20042;-62
2024/02/16 05:40:21;;;;;;;4.43;3.27;;;11.10;68.00;;;12.95;50.97;97428.00;4824958;29;20057;-62
2024/02/16 05:42:51;;;;;;;5.50;3.00;;;11.10;68.10;;;12.92;50.84;97428.34;4834882;29;20393;-63
2024/02/16 05:45:23;;;;;;;7.30;6.47;;;11.10;68.40;;;12.91;50.65;97434.72;4839812;29;20042;-63
2024/02/16 05:47:51;;;;;;;7.60;5.90;;;11.10;67.50;;;12.82;51.03;97432.31;4824761;29;20057;-62
2024/02/16 05:50:21;;;;;;;6.87;3.80;;;11.00;67.80;;;12.78;51.08;97427.31;4840785;29;20419;-63
2024/02/16 05:52:49;;;;;;;6.03;3.10;;;10.90;68.20;;;12.75;51.22;97438.34;4825041;29;20411;-63
2024/02/16 05:55:21;;;;;;;6.63;2.83;;;10.90;68.30;;;12.72;51.22;97428.03;4840965;29;20050;-62
2024/02/16 05:57:48;;;;;;;3.90;2.20;;;10.90;68.70;;;12.70;51.10;97435.41;4824794;29;20042;-62
2024/02/16 06:00:16;;;;;;;4.17;2.60;;;10.90;68.60;;;12.70;51.19;97434.56;4840983;29;20045;-62
2024/02/16 06:02:44;;;;;;;3.40;2.50;;;10.90;69.60;;;12.68;51.21;97440.09;4824554;29;20410;-62
2024/02/16 06:05:12;;;;;;;7.20;2.50;;;10.80;68.30;;;12.66;51.21;97444.78;4840792;29;20498;-62
2024/02/16 06:07:40;;;;;;;3.60;2.57;;;10.80;67.70;;;12.65;50.91;97450.28;4840434;29;20502;-63
2024/02/16 06:10:10;;;;;;;3.67;2.50;;;10.80;67.70;;;12.62;50.82;97451.50;4840336;29;20398;-62
2024/02/16 06:12:39;;;;;;;3.40;2.60;;;10.80;67.50;;;12.59;51.23;97455.34;4840631;29;20049;-63
2024/02/16 06:15:08;;;;;;;2.83;2.10;;;10.80;68.80;;;12.59;50.99;97451.84;4840945;29;20046;-63
2024/02/16 06:17:37;;;;;;;3.23;2.40;;;10.80;67.60;;;12.55;51.09;97451.38;4808866;29;20053;-61
2024/02/16 06:20:09;;;;;;;4.67;2.47;;;10.70;68.20;;;12.49;51.32;97459.28;4840716;29;20057;-61
2024/02/16 06:22:37;;;;;;;3.57;2.77;;;10.60;69.10;;;12.46;51.29;97456.94;4840805;29;20049;-62
2024/02/16 06:25:05;;;;;;;4.57;2.73;;;10.60;69.10;;;12.46;51.43;97456.94;4840713;29;20053;-62
2024/02/16 06:27:33;;;;;;;8.43;4.23;;;10.60;69.30;;;12.47;51.69;97458.63;4839032;29;20077;-62
2024/02/16 06:30:03;;;;;;;5.23;2.80;;;10.70;69.60;;;12.47;51.92;97456.78;4832104;29;20499;-62
2024/02/16 06:32:31;;;;;;;4.60;3.03;;;10.70;69.40;;;12.48;51.54;97455.75;4824608;29;20418;-62
2024/02/16 06:34:59;;;;;;;5.20;3.23;;;10.70;69.40;;;12.49;51.94;97453.94;4839940;29;20057;-62
2024/02/16 06:37:27;;;;;;;5.73;2.63;;;10.70;69.60;;;12.46;51.59;97463.09;4823772;29;20038;-62
2024/02/16 06:39:54;;;;;;;5.77;3.43;;;10.70;69.30;;;12.45;51.83;97465.97;4840312;29;20047;-63
2024/02/16 06:42:22;;;;;;;4.97;3.63;;;10.60;69.40;;;12.45;51.96;97468.66;4839741;29;20491;-62
2024/02/16 06:44:50;;;;;;;7.23;4.17;;;10.60;69.30;;;12.44;51.74;97483.81;4840316;29;20061;-61
2024/02/16 06:47:18;;;;;;;4.03;3.13;;;10.60;69.50;;;12.41;51.91;97482.34;4839984;29;20046;-62
2024/02/16 06:49:46;;;;;;;5.37;2.97;;;10.60;69.30;;;12.40;51.87;97486.00;4838284;29;20042;-62
2024/02/16 06:52:15;;;;;;;3.33;2.10;;;10.60;69.30;;;12.38;51.97;97485.34;4840300;29;20411;-61
2024/02/16 06:54:43;;;;;;;3.73;2.73;;;10.60;68.70;;;12.38;51.59;97488.00;4840123;29;20065;-62
2024/02/16 06:57:11;;;;;;;4.73;2.70;;;10.60;68.60;;;12.39;51.55;97478.19;4839836;29;20053;-63
2024/02/16 06:59:40;;;;;;;3.60;2.23;;;10.60;68.10;;;12.41;51.88;97474.31;4839874;29;20053;-62
2024/02/16 07:02:09;;;;;;;4.27;2.60;;;10.70;68.00;;;12.45;51.46;97490.00;4840207;29;20057;-61
2024/02/16 07:04:36;;;;;;;6.87;2.57;;;10.70;67.70;;;12.50;51.69;97488.44;4839896;29;20061;-62
2024/02/16 07:07:08;;;;;;;5.63;2.90;;;10.80;67.50;;;12.55;51.18;97494.09;4839387;29;20057;-61
2024/02/16 07:09:36;;;;;;;4.07;3.00;;;10.90;66.80;;;12.57;51.50;97504.59;4839868;29;20045;-62
2024/02/16 07:12:06;;;;;;;6.57;3.10;;;10.90;66.90;;;12.59;51.54;97503.41;4839720;29;20486;-61
2024/02/16 07:14:33;;;;;;;4.10;3.17;;;10.90;67.10;;;12.63;51.31;97503.06;4824028;29;20490;-61
2024/02/16 07:17:01;;;;;;;4.53;2.57;;;10.90;66.70;;;12.64;51.20;97510.91;4839382;29;20050;-62
2024/02/16 07:19:28;;;;;;;5.67;2.87;;;11.00;66.60;;;12.66;51.18;97508.88;4839901;29;20426;-61
2024/02/16 07:21:56;;;;;;;3.90;2.70;;;11.00;66.60;;;12.69;51.04;97510.34;4839859;29;20046;-62
2024/02/16 07:24:24;;;;;;;4.83;2.73;;;11.00;66.40;;;12.68;50.96;97512.19;4837780;29;20065;-62
2024/02/16 07:26:53;;;;;;;5.43;2.83;;;11.00;66.30;;;12.70;51.00;97512.03;4839488;29;20050;-62
2024/02/16 07:29:20;;;;;;;5.33;2.90;;;11.00;66.20;;;12.70;51.15;97515.53;4839739;29;20049;-62
2024/02/16 07:31:51;;;;;;;4.30;2.70;;;11.00;66.30;;;12.71;51.15;97519.84;4839647;29;20100;-62
2024/02/16 07:34:18;;;;;;;3.93;2.40;;;11.00;66.30;;;12.72;50.79;97524.19;4839624;29;20046;-62
2024/02/16 07:36:46;;;;;;;5.23;2.47;;;11.00;66.20;;;12.74;50.88;97530.19;4839136;29;20533;-62
2024/02/16 07:39:14;;;;;;;5.03;2.70;;;11.10;66.10;;;12.75;50.99;97529.16;4842421;29;20057;-64
2024/02/16 07:41:42;;;;;;;4.80;2.70;;;11.20;65.90;;;12.79;50.84;97521.63;4826186;29;20053;-62
2024/02/16 07:44:09;;;;;;;3.90;2.50;;;11.20;65.80;;;12.80;50.82;97524.13;4843186;29;20422;-62
2024/02/16 07:46:41;;;;;;;4.57;2.60;;;11.20;65.70;;;12.83;50.83;97527.44;4826024;29;20054;-62
2024/02/16 07:49:10;;;;;;;5.00;2.77;;;11.20;65.60;;;12.85;50.83;97531.59;4842687;29;20050;-61
2024/02/16 07:51:40;;;;;;;7.53;3.10;;;11.30;65.90;;;12.88;50.86;97533.09;4843245;29;20050;-61
2024/02/16 07:54:08;;;;;;;5.30;2.72;;;11.30;65.90;;;12.92;50.88;97532.56;4826296;29;20046;-61
2024/02/16 07:56:36;;;;;;;4.60;3.07;;;11.40;65.90;;;12.95;50.86;97536.69;4826152;29;20061;-60
2024/02/16 07:59:03;;;;;;;3.83;2.37;;;11.40;65.60;;;13.00;51.05;97531.66;4843046;29;20049;-60
2024/02/16 08:01:31;;;;;;;4.07;2.67;;;11.50;65.90;;;13.06;50.82;97530.94;4843060;29;20196;-61
2024/02/16 08:03:59;;;;;;;3.30;2.33;;;11.50;65.80;;;13.15;51.04;97531.72;4843115;29;20041;-61
2024/02/16 08:06:30;;;;;;;5.47;2.63;;;11.60;65.70;;;13.23;51.00;97536.97;4842645;29;20060;-62
2024/02/16 08:08:59;;;;;;;4.73;2.33;;;11.70;65.60;;;13.29;50.89;97540.78;4843116;29;20042;-62
2024/02/16 08:11:27;;;;;;;3.57;2.33;;;11.80;65.20;;;13.34;50.90;97541.94;4842781;29;20046;-61
2024/02/16 08:14:00;;;;;;;4.70;2.90;;;11.90;65.10;;;13.44;51.00;97544.34;4842432;29;20049;-62
2024/02/16 08:16:27;;;;;;;2.70;2.00;;;12.00;65.00;;;13.55;50.71;97545.72;4825337;29;20053;-62
2024/02/16 08:18:55;;;;;;;4.72;2.42;;;12.10;64.80;;;13.63;50.68;97545.66;4841515;29;20537;-62
2024/02/16 08:21:23;;;;;;;2.88;1.95;;;12.20;64.60;;;13.70;50.37;97551.09;4833703;29;20077;-62
2024/02/16 08:23:51;;;;;;;5.68;2.38;;;12.30;64.50;;;13.74;50.39;97545.19;4842766;29;20057;-62
2024/02/16 08:26:19;;;;;;;10.73;5.45;;;12.40;64.00;;;13.82;50.29;97556.84;4842087;29;20508;-63
2024/02/16 08:28:46;;;;;;;4.88;4.35;;;12.40;63.50;;;13.87;50.09;97560.63;4842727;29;20062;-61
2024/02/16 08:31:18;;;;;;;5.13;3.83;;;12.50;63.50;;;13.96;50.00;97558.69;4842420;29;20126;-62
2024/02/16 08:33:46;;;;;;;4.15;3.05;;;12.60;63.10;;;14.01;50.24;97547.44;4825959;29;20054;-62
2024/02/16 08:36:15;;;;;;;5.50;2.97;;;12.70;63.30;;;14.08;50.22;97548.34;4825551;29;20517;-62
2024/02/16 08:38:43;;;;;;;3.08;1.92;;;12.80;63.10;;;14.14;49.90;97551.09;4842130;29;20045;-63
2024/02/16 08:41:11;;;;;;;3.75;2.20;;;12.80;62.50;;;14.23;49.72;97553.66;4842485;29;20046;-63
2024/02/16 08:43:39;;;;;;;4.03;3.15;;;12.90;62.60;;;14.29;49.50;97558.31;4826112;29;20061;-63
2024/02/16 08:46:07;;;;;;;5.00;3.10;;;13.00;62.50;;;14.35;49.64;97554.88;4842270;29;20061;-63
2024/02/16 08:48:35;;;;;;;4.00;2.42;;;13.10;62.00;;;14.39;49.31;97550.81;4826465;29;20061;-64
2024/02/16 08:51:03;;;;;;;3.60;2.90;;;13.20;61.40;;;14.46;49.42;97553.53;4842200;29;20050;-64
2024/02/16 08:53:31;;;;;;;4.10;2.42;;;13.20;61.50;;;14.54;49.28;97556.13;4842298;29;20414;-64
2024/02/16 08:55:58;;;;;;;2.85;1.92;;;13.30;61.60;;;14.61;49.32;97562.41;4841948;29;20042;-63
2024/02/16 08:58:26;;;;;;;3.60;2.53;;;13.40;61.60;;;14.68;49.18;97554.47;4842492;29;20419;-64
2024/02/16 09:00:53;;;;;;;3.60;2.10;;;13.50;60.80;;;14.76;49.17;97563.19;4842029;29;20049;-64
2024/02/16 09:03:22;;;;;;;4.68;3.35;;;13.60;61.40;;;14.77;49.17;97558.66;4842129;29;20053;-64
2024/02/16 09:05:49;;;;;;;2.92;2.15;;;13.60;61.20;;;14.84;49.07;97559.56;4841706;29;20061;-64
2024/02/16 09:08:17;;;;;;;3.88;2.55;;;13.70;61.20;;;14.91;49.17;97563.16;4842034;29;20057;-64
2024/02/16 09:10:45;;;;;;;2.97;1.95;;;13.70;61.10;;;14.98;48.80;97557.84;4841697;29;20410;-64
2024/02/16 09:13:13;;;;;;;2.40;2.00;;;13.80;60.90;;;15.05;48.69;97566.78;4847164;29;20049;-64
2024/02/16 09:15:40;;;;;;;2.65;2.10;;;13.90;60.50;;;15.12;48.77;97565.00;4841333;29;20517;-65
2024/02/16 09:18:08;;;;;;;5.93;1.80;;;13.90;60.60;;;15.19;48.52;97565.06;4841699;29;20426;-63
2024/02/16 09:20:36;;;;;;;4.80;2.10;;;14.00;60.60;;;15.26;48.68;97565.97;4841771;29;20065;-63
2024/02/16 09:23:04;;;;;;;2.22;1.90;;;14.10;60.40;;;15.31;48.50;97563.50;4840661;29;20407;-63
2024/02/16 09:25:31;;;;;;;4.15;2.60;;;14.20;60.10;;;15.41;48.42;97559.66;4825206;29;20049;-63
2024/02/16 09:27:59;;;;;;;3.22;1.85;;;14.20;59.60;;;15.47;48.53;97575.00;4839102;29;20061;-63
2024/02/16 09:30:26;;;;;;;2.72;1.80;;;14.30;60.00;;;15.54;48.37;97570.50;4841541;29;20053;-63
2024/02/16 09:32:54;;;;;;;4.35;2.78;;;14.40;59.80;;;15.61;48.37;97581.31;4841340;29;20057;-64
2024/02/16 09:35:22;;;;;;;5.75;3.38;;;14.40;59.80;;;15.65;48.67;97586.09;4841499;29;20050;-63
2024/02/16 09:37:49;;;;;;;4.88;2.70;;;14.50;60.50;;;15.65;49.04;97591.44;4841042;29;20053;-64
2024/02/16 09:40:18;;;;;;;5.32;2.50;;;14.60;61.20;;;15.70;49.15;97596.22;4824948;29;20057;-63
2024/02/16 09:42:51;;;;;;;4.55;2.20;;;14.60;61.50;;;15.80;49.15;97602.13;4809602;29;20061;-63
2024/02/16 09:45:19;;;;;;;2.33;1.77;;;14.70;61.60;;;15.87;49.03;97603.00;4841429;29;20046;-63
2024/02/16 09:47:47;;;;;;;7.07;3.42;;;14.70;61.30;;;15.91;48.90;97595.38;4840640;29;20070;-64
2024/02/16 09:50:28;;;;;;;5.45;2.47;;;14.80;61.10;;;15.99;49.03;97602.44;4841181;29;20054;-63
2024/02/16 09:52:57;;;;;;;3.72;1.90;;;14.80;61.20;;;16.06;47.89;97609.53;4841025;29;20061;-64
2024/02/16 09:55:25;;;;;;;3.15;2.10;;;14.90;59.30;;;16.14;47.47;97608.53;4840887;29;20053;-63
2024/02/16 09:58:00;;;;;;;2.00;1.52;;;15.00;57.80;;;16.19;46.63;97610.63;4839341;29;20053;-64
2024/02/16 10:00:27;;;;;;;2.85;1.75;;;15.00;55.80;;;16.23;46.26;97620.78;4840966;29;20053;-63
2024/02/16 10:02:55;;;;;;;2.50;1.63;;;15.10;56.30;;;16.28;45.96;97620.19;4839996;29;20054;-63
2024/02/16 10:05:23;;;;;;;3.33;1.52;;;15.20;56.40;;;16.30;46.71;97623.50;4841023;29;20042;-63
2024/02/16 10:07:50;;;;;;;3.70;2.10;;;15.20;56.80;;;16.34;46.89;97620.22;4840527;29;20057;-63
2024/02/16 10:10:30;;;;;;;3.78;2.47;;;15.20;57.80;;;16.40;46.81;97625.81;4824490;29;20041;-64
2024/02/16 10:13:05;;;;;;;3.08;2.20;;;15.20;58.20;;;16.38;47.11;97619.81;4840506;29;20076;-63
2024/02/16 10:15:33;;;;;;;5.10;2.30;;;15.30;58.40;;;16.42;47.24;97621.94;4840730;29;20038;-64
2024/02/16 10:18:06;;;;;;;5.43;2.42;;;15.30;58.80;;;16.47;47.54;97630.19;4839469;29;20521;-64
2024/02/16 10:20:38;;;;;;;3.72;2.10;;;15.40;58.70;;;16.51;47.38;97628.78;4838866;29;20050;-64
2024/02/16 10:23:08;;;;;;;3.60;2.20;;;15.30;59.10;;;16.56;46.47;97628.19;4809176;29;20057;-63
2024/02/16 10:25:40;;;;;;;3.13;2.25;;;15.40;57.70;;;16.61;46.41;97632.97;4814064;29;20075;-63